Decoded Metar for KAQW (NORTH ADAMS in MA, USA) (IATA:AQW) | Meteo·Mobile Aviation Weather
aviador You're here:

KAQW Decoded Metar

NORTH ADAMS in MA, USA
Report Time2019-02-22 13:52:00
UTC Time2019-02-22 13:57:32
Flight Rules vfr VFR
Wind290° at 05 kt
W.Decomp.*RWY 29: 4.9 kt HW 1.2 kt RCW
W.Rank290° ranks 7
Current wind is below 290° avg. (6.2)
Visibility9999 m
Phenomena:N/A
Clouds:Overcast 038 Hf
Expected CloudBase > 2,800 ft AGL from Temp-Dew spread
Ceiling3,800 ft
Temp01°C (ISA -13)
Dew Point-6°C (60% RH)
AAT-3.5°C
QNH1026 hPa
Density Alt-1,280 ft
Elevation653 ft
Report Wrong Elevation
Raw Report
METAR KAQW 221352Z AUTO 29005KT 10SM OVC038 01/M06 A3030 RMK AO2
SLP269 T00061061=

Extra information for KAQW:More info

Metar Taf Metar & Taf Last 4 Metars F.Rules Stats Wind Profile Meteogram Temp Stats Airport Information Weather charts Add Link Nearby VenuesMetar ALERT Operation Metar Decoded Social comments

AIRNAV info for KAQW